Time;durP1;ratioP1;P1;durP2;ratioP2;P2;SDS_P1;SDS_P2;PMS_P1;PMS_P2;Temp;Humidity;BMP_temperature;BMP_pressure;BME280_temperature;BME280_humidity;BME280_pressure;Samples;Min_cycle;Max_cycle;Signal;HPM_P1;HPM_P2
2021/12/07 00:02:02;;;;;;;1.30;1.02;;;5.50;54.30;;;;;;5104660;28;36645;-77
2021/12/07 00:04:29;;;;;;;2.25;1.27;;;5.40;54.20;;;;;;5105005;28;34342;-77
2021/12/07 00:06:56;;;;;;;1.73;0.93;;;5.50;54.20;;;;;;5104666;28;34206;-77
2021/12/07 00:09:22;;;;;;;3.22;1.00;;;5.50;54.20;;;;;;5106152;27;34472;-77
2021/12/07 00:11:49;;;;;;;4.35;1.35;;;5.40;54.20;;;;;;5104169;28;35999;-77
2021/12/07 00:14:23;;;;;;;2.55;0.93;;;5.40;54.30;;;;;;5104038;28;34318;-77
2021/12/07 00:16:51;;;;;;;2.95;0.85;;;5.40;54.40;;;;;;5104467;28;34194;-77
2021/12/07 00:19:18;;;;;;;3.70;1.10;;;5.50;54.40;;;;;;5104495;28;34104;-77
2021/12/07 00:21:44;;;;;;;1.33;0.88;;;5.50;54.30;;;;;;5087002;28;35725;-77
2021/12/07 00:24:12;;;;;;;0.88;0.88;;;5.50;54.30;;;;;;5104046;28;34170;-77
2021/12/07 00:26:41;;;;;;;1.67;1.00;;;5.50;54.20;;;;;;5105540;27;34330;-77
2021/12/07 00:29:09;;;;;;;3.08;1.23;;;5.50;54.10;;;;;;5104577;28;34130;-77
2021/12/07 00:31:45;;;;;;;3.10;1.13;;;5.50;54.10;;;;;;5103906;28;35506;-77
2021/12/07 00:34:22;;;;;;;1.27;0.90;;;5.40;54.10;;;;;;5103961;28;34309;-77
2021/12/07 00:36:49;;;;;;;2.60;0.98;;;5.40;54.20;;;;;;5102933;28;34184;-77
2021/12/07 00:39:18;;;;;;;4.93;1.13;;;5.40;54.30;;;;;;5072111;27;34497;-77
2021/12/07 00:41:44;;;;;;;2.05;0.95;;;5.40;54.30;;;;;;5073630;27;36757;-77
2021/12/07 00:44:11;;;;;;;1.23;0.90;;;5.50;54.40;;;;;;5107201;27;34253;-76
2021/12/07 00:46:37;;;;;;;6.13;1.30;;;5.40;54.30;;;;;;5125709;27;34494;-77
2021/12/07 00:49:04;;;;;;;2.83;1.00;;;5.50;54.40;;;;;;5107588;27;34257;-77
2021/12/07 00:51:30;;;;;;;2.47;0.82;;;5.50;54.50;;;;;;5090720;27;36440;-77
2021/12/07 00:53:56;;;;;;;2.20;1.30;;;5.50;54.40;;;;;;5090409;27;34097;-76
2021/12/07 00:56:23;;;;;;;3.75;1.20;;;5.50;54.20;;;;;;5107885;27;34130;-77
2021/12/07 00:58:51;;;;;;;2.53;0.95;;;5.50;54.20;;;;;;5108088;27;34192;-77
2021/12/07 01:01:19;;;;;;;0.98;0.77;;;5.60;54.20;;;;;;5107111;27;36764;-77
2021/12/07 01:03:46;;;;;;;4.57;0.93;;;5.50;54.10;;;;;;5090299;27;34166;-77
2021/12/07 01:06:21;;;;;;;3.00;1.20;;;5.50;54.00;;;;;;5106727;27;34187;-77
2021/12/07 01:09:00;;;;;;;3.53;1.25;;;5.50;54.00;;;;;;5109049;27;34260;-77
2021/12/07 01:25:00;;;;;;;1.60;0.93;;;5.20;54.10;;;;;;5124521;27;34148;-77
2021/12/07 01:27:27;;;;;;;3.55;0.82;;;5.10;54.10;;;;;;5106708;27;34192;-77
2021/12/07 01:30:08;;;;;;;1.52;0.80;;;5.10;54.20;;;;;;5107190;27;34176;-77
2021/12/07 01:32:51;;;;;;;4.25;1.00;;;5.00;54.00;;;;;;5106587;27;36053;-77
2021/12/07 01:35:42;;;;;;;2.90;0.88;;;5.00;54.20;;;;;;5106982;27;34435;-77
2021/12/07 01:38:24;;;;;;;3.20;1.00;;;5.00;54.40;;;;;;5109639;27;34194;-76
2021/12/07 01:41:08;;;;;;;0.80;0.70;;;5.00;54.50;;;;;;5110223;27;34589;-77
2021/12/07 01:44:02;;;;;;;1.10;1.00;;;5.00;54.50;;;;;;5125190;27;35369;-77
2021/12/07 01:46:42;;;;;;;5.25;1.00;;;5.00;54.70;;;;;;5109923;27;34317;-77
2021/12/07 01:52:10;;;;;;;3.33;1.15;;;5.10;54.80;;;;;;5109485;27;34169;-77
2021/12/07 01:59:59;;;;;;;1.60;0.57;;;5.20;54.20;;;;;;5109076;27;34244;-78
2021/12/07 02:02:28;;;;;;;1.42;0.50;;;5.20;54.10;;;;;;5125321;27;34231;-77
2021/12/07 02:04:56;;;;;;;0.43;0.43;;;5.20;53.80;;;;;;5088886;27;35982;-77
2021/12/07 02:07:23;;;;;;;1.50;0.52;;;5.10;53.80;;;;;;5089738;27;34150;-77
2021/12/07 02:09:54;;;;;;;0.98;0.45;;;5.10;53.80;;;;;;5089472;27;34274;-76
2021/12/07 02:12:21;;;;;;;1.15;0.50;;;5.00;53.60;;;;;;5090439;27;34366;-76
2021/12/07 02:14:47;;;;;;;2.03;0.57;;;4.90;53.70;;;;;;5089034;27;35890;-76
2021/12/07 02:17:17;;;;;;;0.55;0.40;;;4.90;53.90;;;;;;5105948;27;34342;-76
2021/12/07 02:19:43;;;;;;;1.58;0.90;;;4.80;53.80;;;;;;5106591;27;34212;-76
2021/12/07 02:22:10;;;;;;;3.10;0.70;;;4.80;54.00;;;;;;5072524;27;34170;-77
2021/12/07 02:24:37;;;;;;;0.50;0.50;;;4.80;54.00;;;;;;5106481;27;35470;-77
2021/12/07 02:27:04;;;;;;;0.63;0.57;;;4.70;54.10;;;;;;5106418;27;34243;-77
2021/12/07 02:29:30;;;;;;;0.40;0.40;;;4.70;54.10;;;;;;5106844;27;34209;-77
2021/12/07 02:31:58;;;;;;;2.63;0.60;;;4.60;54.00;;;;;;5107004;27;34230;-77
2021/12/07 02:34:25;;;;;;;1.05;0.60;;;4.60;54.00;;;;;;5106719;27;35697;-77
2021/12/07 02:36:52;;;;;;;1.40;0.70;;;4.50;54.10;;;;;;5107032;27;34250;-77
2021/12/07 02:39:27;;;;;;;0.93;0.63;;;4.40;54.10;;;;;;5106175;27;34659;-77
2021/12/07 02:41:53;;;;;;;0.60;0.52;;;4.40;54.10;;;;;;5107488;27;34255;-77
2021/12/07 02:44:19;;;;;;;0.60;0.60;;;4.40;54.20;;;;;;5124386;27;35013;-76
2021/12/07 02:46:45;;;;;;;1.17;0.70;;;4.30;54.20;;;;;;5090040;27;34401;-76
2021/12/07 02:49:11;;;;;;;2.40;0.73;;;4.30;54.30;;;;;;5089696;27;34313;-77
2021/12/07 02:51:37;;;;;;;0.70;0.70;;;4.30;54.30;;;;;;5107379;27;34251;-77
2021/12/07 02:54:04;;;;;;;2.05;0.57;;;4.20;54.30;;;;;;5106995;27;36489;-77
2021/12/07 02:56:30;;;;;;;0.90;0.70;;;4.20;54.30;;;;;;5106371;27;34139;-77
2021/12/07 02:59:00;;;;;;;0.98;0.85;;;4.30;54.30;;;;;;5105010;27;34140;-77
2021/12/07 03:01:31;;;;;;;2.45;0.70;;;4.20;54.20;;;;;;5089293;27;34288;-77
2021/12/07 03:04:05;;;;;;;2.33;0.98;;;4.20;54.20;;;;;;5105379;27;36622;-77
2021/12/07 03:07:08;;;;;;;0.82;0.73;;;4.10;54.30;;;;;;5106153;27;34330;-77
2021/12/07 03:28:27;;;;;;;1.55;0.77;;;4.00;54.60;;;;;;5108291;27;34250;-77
2021/12/07 03:30:54;;;;;;;2.67;1.25;;;4.00;54.80;;;;;;5106425;27;34327;-76
2021/12/07 03:33:20;;;;;;;1.50;1.20;;;4.00;54.90;;;;;;5105811;27;34486;-77
2021/12/07 03:35:47;;;;;;;4.93;1.35;;;4.00;54.80;;;;;;5088637;27;35830;-77
2021/12/07 03:38:13;;;;;;;1.67;1.23;;;4.10;55.00;;;;;;5106717;27;34158;-77
2021/12/07 03:40:39;;;;;;;1.67;0.80;;;4.10;54.90;;;;;;5105935;27;34346;-77
2021/12/07 03:43:06;;;;;;;1.13;0.80;;;4.20;54.80;;;;;;5105599;27;34532;-77
2021/12/07 03:45:33;;;;;;;1.77;1.20;;;4.20;54.80;;;;;;5088763;27;35886;-77
2021/12/07 03:48:02;;;;;;;3.33;1.30;;;4.20;54.90;;;;;;5071983;27;34028;-77
2021/12/07 03:50:29;;;;;;;3.25;1.20;;;4.20;55.00;;;;;;5124801;27;34106;-76
2021/12/07 03:52:55;;;;;;;4.18;1.40;;;4.30;55.00;;;;;;5124088;27;34115;-77
2021/12/07 03:55:21;;;;;;;3.85;1.23;;;4.30;55.00;;;;;;5105009;27;36490;-77
2021/12/07 03:57:48;;;;;;;2.05;1.30;;;4.40;54.80;;;;;;5106102;27;34103;-76
2021/12/07 04:00:18;;;;;;;2.42;1.33;;;4.40;54.70;;;;;;5105191;27;34130;-77
2021/12/07 04:02:45;;;;;;;4.50;1.42;;;4.40;54.50;;;;;;5105715;27;34293;-77
2021/12/07 04:05:15;;;;;;;2.72;1.48;;;4.40;54.50;;;;;;5105461;27;36319;-77
2021/12/07 04:07:42;;;;;;;2.67;1.38;;;4.40;54.40;;;;;;5105532;27;34158;-76
2021/12/07 04:10:10;;;;;;;2.95;1.50;;;4.50;54.60;;;;;;5105687;27;34522;-77
2021/12/07 04:12:37;;;;;;;2.03;1.30;;;4.50;54.60;;;;;;5108771;27;34236;-76
2021/12/07 04:15:06;;;;;;;4.75;1.73;;;4.50;54.60;;;;;;5126947;27;34128;-77
2021/12/07 04:17:32;;;;;;;4.10;1.30;;;4.50;54.60;;;;;;5091785;27;34578;-76
2021/12/07 04:19:58;;;;;;;3.13;1.55;;;4.50;54.60;;;;;;5108793;27;34220;-76
2021/12/07 04:22:25;;;;;;;3.15;1.40;;;4.50;54.60;;;;;;5126598;27;34215;-77
2021/12/07 04:24:52;;;;;;;3.65;1.17;;;4.60;54.60;;;;;;5108567;27;35727;-77
2021/12/07 04:27:18;;;;;;;2.08;1.30;;;4.60;54.60;;;;;;5108285;27;34047;-77
2021/12/07 04:29:45;;;;;;;2.88;1.58;;;4.60;54.60;;;;;;5108245;27;34243;-77
2021/12/07 04:32:11;;;;;;;3.53;1.40;;;4.60;54.70;;;;;;5108090;27;33999;-77
2021/12/07 04:34:37;;;;;;;2.15;1.33;;;4.60;54.60;;;;;;5126387;27;34319;-76
2021/12/07 04:37:03;;;;;;;2.90;1.20;;;4.60;55.30;;;;;;5108295;27;34350;-77
2021/12/07 04:39:30;;;;;;;1.40;1.10;;;4.60;54.70;;;;;;5090748;27;34256;-76
2021/12/07 04:41:56;;;;;;;1.80;1.15;;;4.60;54.60;;;;;;5107973;27;34422;-76
2021/12/07 04:44:23;;;;;;;5.78;1.88;;;4.60;54.70;;;;;;5108215;27;36341;-76
2021/12/07 04:57:48;;;;;;;3.03;1.35;;;4.80;54.80;;;;;;5125976;27;34077;-77
2021/12/07 05:00:19;;;;;;;3.92;1.77;;;4.80;54.70;;;;;;5092929;27;34310;-77
2021/12/07 05:02:52;;;;;;;4.35;1.45;;;4.80;54.70;;;;;;5108918;27;34431;-77
2021/12/07 05:05:19;;;;;;;4.78;1.80;;;4.80;54.70;;;;;;5091370;27;36106;-77
2021/12/07 05:07:51;;;;;;;3.75;1.10;;;4.80;54.70;;;;;;5126299;27;34226;-76
2021/12/07 05:13:23;;;;;;;6.20;1.38;;;4.90;54.30;;;;;;5125781;27;34176;-77
2021/12/07 05:16:13;;;;;;;7.25;1.27;;;4.90;54.30;;;;;;5110416;27;34882;-76
2021/12/07 05:23:59;;;;;;;5.13;1.75;;;4.90;53.90;;;;;;5125216;27;34353;-76
2021/12/07 05:34:46;;;;;;;1.77;1.17;;;5.00;54.30;;;;;;5125649;27;34179;-77
2021/12/07 05:39:56;;;;;;;2.80;1.10;;;5.00;54.40;;;;;;5109496;27;34509;-77
2021/12/07 05:42:23;;;;;;;4.13;1.52;;;5.00;54.50;;;;;;5107589;27;34565;-76
2021/12/07 05:44:50;;;;;;;2.47;1.10;;;5.00;54.30;;;;;;5107012;27;34121;-76
2021/12/07 05:47:17;;;;;;;6.60;1.40;;;5.00;54.30;;;;;;5106575;27;35836;-77
2021/12/07 05:49:44;;;;;;;1.85;1.17;;;5.00;54.20;;;;;;5125069;27;34359;-77
2021/12/07 05:52:11;;;;;;;3.58;1.40;;;4.90;54.20;;;;;;5106455;27;34366;-77
2021/12/07 05:54:37;;;;;;;3.20;1.30;;;4.90;54.10;;;;;;5106533;27;34271;-76
2021/12/07 05:57:04;;;;;;;2.50;1.00;;;4.80;54.00;;;;;;5124995;27;34514;-76
2021/12/07 05:59:31;;;;;;;3.25;1.27;;;4.70;54.00;;;;;;5107165;27;34273;-76
2021/12/07 06:01:57;;;;;;;4.50;1.45;;;4.60;54.00;;;;;;5106365;27;34182;-77
2021/12/07 06:04:23;;;;;;;4.05;1.00;;;4.50;54.00;;;;;;5106618;27;34233;-77
2021/12/07 06:06:49;;;;;;;3.22;0.90;;;4.40;53.90;;;;;;5106414;27;36383;-77
2021/12/07 06:09:15;;;;;;;4.45;1.55;;;4.30;53.90;;;;;;5124754;27;34082;-76
2021/12/07 06:11:42;;;;;;;3.05;1.08;;;4.10;53.90;;;;;;5106053;27;34348;-76
2021/12/07 06:14:11;;;;;;;1.75;1.02;;;4.00;54.00;;;;;;5106594;27;34383;-77
2021/12/07 06:16:37;;;;;;;5.82;1.35;;;4.00;54.20;;;;;;5124311;27;35214;-76
2021/12/07 06:19:03;;;;;;;6.93;1.38;;;3.90;54.40;;;;;;5107438;27;34146;-76
2021/12/07 06:21:29;;;;;;;1.70;1.00;;;3.80;54.50;;;;;;5107134;27;34275;-76
2021/12/07 06:23:55;;;;;;;1.30;1.13;;;3.80;54.60;;;;;;5107450;27;34288;-76
2021/12/07 06:26:22;;;;;;;1.85;1.25;;;3.80;54.70;;;;;;5105604;27;36738;-76
2021/12/07 06:28:48;;;;;;;3.10;1.17;;;3.80;54.80;;;;;;5124304;27;34154;-76
2021/12/07 06:31:14;;;;;;;2.05;1.27;;;3.80;54.70;;;;;;5088707;27;34119;-76
2021/12/07 06:33:40;;;;;;;3.15;1.20;;;3.80;54.70;;;;;;5105456;27;34054;-76
2021/12/07 06:36:06;;;;;;;2.97;1.25;;;3.80;54.90;;;;;;5087810;27;36008;-76
2021/12/07 06:38:34;;;;;;;4.35;1.15;;;3.80;54.60;;;;;;5105625;27;34348;-76
2021/12/07 06:41:02;;;;;;;3.00;1.38;;;3.80;54.50;;;;;;5106219;27;34442;-76
2021/12/07 06:43:28;;;;;;;1.23;1.05;;;3.80;54.40;;;;;;5106088;27;34181;-76
2021/12/07 06:45:55;;;;;;;2.40;1.20;;;3.70;54.40;;;;;;5105718;27;35737;-76
2021/12/07 06:48:21;;;;;;;3.50;1.30;;;3.70;54.30;;;;;;5105698;27;34221;-77
2021/12/07 06:50:48;;;;;;;4.00;1.20;;;3.60;54.30;;;;;;5123473;27;34213;-76
2021/12/07 06:53:14;;;;;;;1.23;0.95;;;3.50;54.30;;;;;;5124092;27;34405;-76
2021/12/07 06:55:40;;;;;;;2.28;1.40;;;3.50;54.40;;;;;;5105872;27;35937;-76
2021/12/07 06:58:06;;;;;;;3.95;1.08;;;3.50;55.20;;;;;;5089017;27;34424;-76
2021/12/07 07:00:33;;;;;;;1.70;1.15;;;3.40;54.50;;;;;;5106043;27;34223;-76
2021/12/07 07:02:59;;;;;;;1.48;1.10;;;3.40;54.70;;;;;;5105758;27;34183;-76
2021/12/07 07:05:25;;;;;;;5.28;1.38;;;3.40;54.90;;;;;;5124067;27;34246;-76
2021/12/07 07:07:51;;;;;;;4.53;1.20;;;3.40;54.90;;;;;;5124125;27;34186;-76
2021/12/07 07:10:19;;;;;;;6.47;1.63;;;3.40;55.00;;;;;;5123992;27;34260;-76
2021/12/07 07:12:46;;;;;;;5.18;1.20;;;3.50;55.10;;;;;;5123310;27;34189;-76
2021/12/07 07:15:13;;;;;;;2.55;1.20;;;3.50;55.20;;;;;;5104618;27;36396;-76
2021/12/07 07:17:39;;;;;;;8.50;1.20;;;3.50;55.10;;;;;;5088571;27;34384;-76
2021/12/07 07:20:08;;;;;;;1.90;1.23;;;3.60;55.10;;;;;;5123675;27;34192;-76
2021/12/07 07:22:35;;;;;;;1.23;0.90;;;3.60;55.10;;;;;;5123994;27;34295;-76
2021/12/07 07:25:01;;;;;;;7.43;1.67;;;3.70;55.00;;;;;;5123548;27;34158;-76
2021/12/07 07:27:27;;;;;;;1.95;1.20;;;3.70;54.90;;;;;;5105434;27;34173;-76
2021/12/07 07:29:53;;;;;;;3.30;1.23;;;3.80;54.80;;;;;;5123705;27;34185;-76
2021/12/07 07:32:19;;;;;;;3.90;1.30;;;3.80;54.60;;;;;;5123992;27;34285;-76
2021/12/07 07:34:45;;;;;;;4.22;1.25;;;3.90;54.60;;;;;;5122990;27;34337;-76
2021/12/07 07:37:11;;;;;;;1.67;1.20;;;3.90;54.50;;;;;;5105204;27;34328;-76
2021/12/07 07:39:39;;;;;;;7.95;1.48;;;3.90;54.40;;;;;;5087683;27;34396;-76
2021/12/07 07:42:05;;;;;;;5.90;1.73;;;3.90;54.40;;;;;;5105026;27;34349;-76
2021/12/07 07:44:31;;;;;;;2.78;1.45;;;3.90;54.40;;;;;;5104922;27;36488;-76
2021/12/07 07:46:57;;;;;;;5.15;1.27;;;3.90;54.40;;;;;;5125569;27;34366;-76
2021/12/07 07:49:23;;;;;;;4.50;1.45;;;3.90;54.40;;;;;;5108998;27;34128;-76
2021/12/07 07:51:49;;;;;;;3.58;1.52;;;3.90;54.50;;;;;;5091687;27;34138;-76
2021/12/07 07:54:16;;;;;;;2.85;1.15;;;3.90;54.50;;;;;;5109149;27;36391;-76
2021/12/07 07:56:42;;;;;;;3.38;0.90;;;3.90;54.60;;;;;;5127179;27;34378;-76
2021/12/07 07:59:08;;;;;;;1.58;1.30;;;3.90;54.60;;;;;;5127100;27;34300;-76
2021/12/07 08:01:34;;;;;;;5.28;1.38;;;3.90;54.70;;;;;;5109188;27;34272;-76
2021/12/07 08:04:04;;;;;;;3.85;1.40;;;3.90;54.80;;;;;;5090968;27;35686;-76
2021/12/07 08:06:30;;;;;;;2.63;1.38;;;3.90;54.70;;;;;;5075175;27;34317;-76
2021/12/07 08:08:57;;;;;;;2.25;1.10;;;3.90;54.60;;;;;;5108899;27;34315;-76
2021/12/07 08:11:24;;;;;;;2.97;1.85;;;3.90;54.50;;;;;;5126552;27;34260;-76
2021/12/07 08:13:50;;;;;;;3.85;1.83;;;3.90;55.30;;;;;;5108346;27;35747;-76
2021/12/07 08:16:16;;;;;;;7.57;2.38;;;4.00;54.80;;;;;;5126176;27;34159;-76
2021/12/07 08:18:45;;;;;;;2.75;1.60;;;4.00;54.90;;;;;;5126441;27;34386;-76
2021/12/07 08:21:12;;;;;;;4.22;1.65;;;4.10;54.80;;;;;;5126266;27;34236;-76
2021/12/07 08:23:39;;;;;;;3.40;1.30;;;4.10;54.80;;;;;;5126882;27;34543;-77
2021/12/07 08:26:08;;;;;;;6.93;1.80;;;4.20;54.70;;;;;;5090788;27;34178;-76
2021/12/07 08:28:35;;;;;;;4.97;1.73;;;4.30;54.50;;;;;;5091184;27;34256;-76
2021/12/07 08:31:03;;;;;;;5.07;1.70;;;4.40;54.50;;;;;;5091439;27;34084;-76
2021/12/07 08:33:29;;;;;;;5.15;1.80;;;4.50;54.60;;;;;;5090957;27;35914;-76
2021/12/07 08:35:55;;;;;;;1.60;1.33;;;4.50;54.50;;;;;;5108164;27;34462;-77
2021/12/07 08:38:22;;;;;;;2.58;1.30;;;4.60;54.60;;;;;;5090038;27;34406;-76
2021/12/07 08:40:53;;;;;;;4.82;2.10;;;4.60;54.10;;;;;;5125990;27;34227;-77
2021/12/07 08:43:22;;;;;;;5.20;1.75;;;4.70;54.10;;;;;;5091161;27;35685;-76
2021/12/07 08:45:49;;;;;;;4.60;1.65;;;4.80;53.80;;;;;;5090804;27;34257;-77
2021/12/07 08:48:16;;;;;;;3.25;1.40;;;4.90;53.90;;;;;;5108190;27;34160;-77
2021/12/07 08:50:44;;;;;;;4.72;1.70;;;4.90;53.90;;;;;;5091362;27;34278;-77
2021/12/07 08:53:13;;;;;;;4.22;1.75;;;5.00;54.10;;;;;;5107798;27;35539;-77
2021/12/07 09:01:08;;;;;;;2.47;1.65;;;5.20;54.00;;;;;;5126207;27;34358;-77
2021/12/07 09:03:34;;;;;;;5.80;1.75;;;5.20;53.40;;;;;;5107957;27;35521;-76
2021/12/07 09:06:01;;;;;;;5.63;1.55;;;5.30;53.40;;;;;;5089924;27;34160;-76
2021/12/07 09:08:28;;;;;;;5.40;1.42;;;5.30;53.60;;;;;;5107114;27;34298;-76
2021/12/07 09:10:54;;;;;;;3.35;1.42;;;5.30;53.30;;;;;;5107993;27;34186;-77
2021/12/07 09:13:23;;;;;;;3.83;1.88;;;5.30;53.30;;;;;;5107079;27;35656;-77
2021/12/07 09:15:50;;;;;;;6.03;1.73;;;5.30;53.30;;;;;;5107348;27;34358;-76
2021/12/07 09:18:16;;;;;;;6.03;1.70;;;5.30;53.40;;;;;;5090163;27;34348;-77
2021/12/07 09:20:42;;;;;;;7.55;1.45;;;5.30;53.50;;;;;;5107477;27;34207;-77
2021/12/07 09:23:10;;;;;;;5.93;1.83;;;5.40;53.40;;;;;;5089840;27;35254;-77
2021/12/07 09:25:37;;;;;;;8.02;1.88;;;5.40;53.20;;;;;;5125368;27;34243;-77
2021/12/07 09:28:04;;;;;;;6.00;2.00;;;5.40;53.10;;;;;;5107644;27;34408;-76
2021/12/07 09:30:30;;;;;;;9.70;1.95;;;5.60;53.40;;;;;;5107512;27;34458;-77
2021/12/07 09:32:56;;;;;;;5.63;1.65;;;5.70;53.50;;;;;;5107169;27;36768;-77
2021/12/07 09:35:23;;;;;;;7.68;1.98;;;5.70;53.20;;;;;;5125257;27;34260;-76
2021/12/07 09:37:52;;;;;;;3.50;2.00;;;5.70;52.90;;;;;;5107358;27;34379;-76
2021/12/07 09:40:20;;;;;;;5.15;1.60;;;5.70;52.90;;;;;;5089553;27;34349;-76
2021/12/07 09:42:47;;;;;;;5.38;2.20;;;5.70;53.00;;;;;;5125168;27;34249;-76
2021/12/07 09:45:16;;;;;;;3.55;1.83;;;5.70;52.90;;;;;;5088974;27;34123;-76
2021/12/07 09:47:42;;;;;;;6.13;2.10;;;5.70;53.10;;;;;;5091449;27;34300;-76
2021/12/07 09:50:11;;;;;;;8.38;2.28;;;5.70;53.20;;;;;;5108220;27;34388;-77
2021/12/07 09:52:38;;;;;;;9.65;2.17;;;5.70;53.20;;;;;;5108745;27;35317;-77
2021/12/07 09:55:05;;;;;;;5.30;2.00;;;5.70;53.20;;;;;;5108073;27;34354;-76
2021/12/07 09:57:32;;;;;;;7.05;2.00;;;5.80;53.10;;;;;;5125454;27;34365;-77
2021/12/07 10:00:17;;;;;;;4.40;2.08;;;5.80;52.90;;;;;;5090934;27;34261;-76
2021/12/07 10:02:44;;;;;;;5.18;1.98;;;5.80;52.90;;;;;;5126061;27;35056;-76
2021/12/07 10:05:11;;;;;;;4.03;2.03;;;5.80;53.10;;;;;;5108414;27;34401;-77
2021/12/07 10:07:37;;;;;;;2.95;2.15;;;5.80;53.10;;;;;;5107621;27;34158;-76
2021/12/07 10:10:10;;;;;;;6.78;2.30;;;5.90;53.20;;;;;;5090345;27;35232;-76
2021/12/07 10:12:37;;;;;;;3.20;1.90;;;6.00;52.90;;;;;;5090970;27;34128;-76
2021/12/07 10:15:08;;;;;;;5.68;2.20;;;6.00;52.90;;;;;;5106965;27;34169;-76
2021/12/07 10:17:37;;;;;;;3.08;1.80;;;6.00;52.60;;;;;;5090542;27;34104;-77
2021/12/07 10:20:42;;;;;;;7.22;1.85;;;6.00;52.70;;;;;;5107799;27;34352;-77
2021/12/07 10:23:32;;;;;;;6.60;2.40;;;6.00;52.40;;;;;;5105763;27;35665;-77
2021/12/07 10:26:17;;;;;;;10.30;2.30;;;6.10;52.60;;;;;;5094014;27;34150;-77
2021/12/07 10:28:49;;;;;;;5.90;1.85;;;6.10;52.40;;;;;;5090022;27;34233;-77
2021/12/07 10:31:39;;;;;;;6.88;2.08;;;6.20;52.60;;;;;;5107738;27;34095;-76
2021/12/07 10:34:11;;;;;;;6.78;2.05;;;6.20;52.60;;;;;;5078633;27;35933;-76
2021/12/07 10:36:44;;;;;;;2.88;1.95;;;6.20;52.20;;;;;;5075012;27;34235;-76
2021/12/07 10:39:18;;;;;;;5.78;2.22;;;6.20;51.90;;;;;;5091283;27;34325;-76
2021/12/07 10:41:49;;;;;;;5.90;2.20;;;6.20;52.30;;;;;;5075027;27;34380;-76
2021/12/07 10:44:19;;;;;;;4.72;2.30;;;6.30;52.30;;;;;;5108608;27;35642;-77
2021/12/07 10:46:51;;;;;;;4.82;1.88;;;6.30;52.30;;;;;;5090062;27;34177;-77
2021/12/07 10:49:36;;;;;;;6.50;2.38;;;6.30;52.30;;;;;;5076443;27;34001;-76
2021/12/07 10:52:11;;;;;;;5.05;2.10;;;6.30;52.40;;;;;;5107004;27;34146;-76
2021/12/07 10:54:43;;;;;;;8.77;2.28;;;6.30;52.30;;;;;;5090799;27;35927;-76
2021/12/07 10:57:13;;;;;;;3.60;2.03;;;6.30;52.30;;;;;;5089453;27;34234;-76
2021/12/07 10:59:48;;;;;;;6.75;2.28;;;6.30;52.10;;;;;;5073617;27;34363;-76
2021/12/07 11:02:17;;;;;;;8.45;2.50;;;6.30;52.30;;;;;;5106633;27;34202;-76
2021/12/07 11:04:44;;;;;;;5.00;2.00;;;6.20;51.80;;;;;;5106199;27;34402;-76
2021/12/07 11:07:19;;;;;;;4.32;2.45;;;6.10;52.20;;;;;;5105935;27;34142;-76
2021/12/07 11:10:11;;;;;;;4.35;2.40;;;6.00;52.10;;;;;;5124734;27;34152;-76
2021/12/07 11:12:58;;;;;;;5.15;2.17;;;6.00;52.10;;;;;;5109387;27;34256;-76
2021/12/07 11:15:26;;;;;;;3.25;1.95;;;6.00;52.30;;;;;;5124517;27;34281;-76
2021/12/07 11:17:56;;;;;;;6.10;2.63;;;6.00;52.50;;;;;;5106615;27;34093;-77
2021/12/07 11:20:23;;;;;;;6.35;2.42;;;6.00;52.40;;;;;;5091486;27;34424;-76
2021/12/07 11:22:54;;;;;;;5.10;2.30;;;6.00;52.40;;;;;;5129693;27;34439;-76
2021/12/07 11:31:17;;;;;;;2.83;2.38;;;6.00;52.20;;;;;;5113479;27;34428;-76
2021/12/07 11:33:44;;;;;;;4.93;3.13;;;6.00;52.40;;;;;;5077969;27;34255;-76
2021/12/07 11:36:27;;;;;;;13.07;3.47;;;6.00;52.50;;;;;;5110759;27;35488;-76
2021/12/07 11:38:55;;;;;;;6.00;3.15;;;6.00;52.20;;;;;;5128809;27;34260;-76
2021/12/07 11:41:27;;;;;;;7.40;3.47;;;6.00;52.40;;;;;;5112646;27;34189;-76
2021/12/07 11:43:57;;;;;;;4.95;3.13;;;6.00;52.60;;;;;;5110612;27;34643;-76
2021/12/07 11:46:25;;;;;;;7.25;3.25;;;6.00;52.60;;;;;;5093047;27;35949;-77
2021/12/07 11:49:09;;;;;;;4.78;3.53;;;6.00;52.60;;;;;;5128260;27;34272;-76
2021/12/07 11:51:35;;;;;;;7.65;3.45;;;6.00;52.30;;;;;;5110541;27;34260;-76
2021/12/07 11:54:01;;;;;;;7.10;3.58;;;6.10;52.70;;;;;;5111243;27;34295;-76
2021/12/07 11:56:27;;;;;;;4.65;3.25;;;6.10;52.70;;;;;;5127821;27;35128;-76
2021/12/07 11:58:53;;;;;;;5.07;3.47;;;6.10;52.80;;;;;;5110313;27;34168;-76
2021/12/07 12:01:19;;;;;;;7.30;3.33;;;6.10;52.70;;;;;;5110192;27;34171;-76
2021/12/07 12:03:45;;;;;;;7.63;3.53;;;6.10;52.60;;;;;;5094023;27;34246;-76
2021/12/07 12:06:12;;;;;;;7.50;3.30;;;6.10;52.60;;;;;;5109870;27;35461;-76
2021/12/07 12:08:39;;;;;;;6.32;3.22;;;6.10;52.60;;;;;;5111674;27;34170;-76
2021/12/07 12:11:33;;;;;;;7.45;3.42;;;6.20;52.70;;;;;;5128989;27;34279;-76
2021/12/07 12:14:27;;;;;;;5.03;3.10;;;6.20;52.50;;;;;;5100013;27;34377;-76
2021/12/07 12:17:08;;;;;;;11.00;3.63;;;6.30;52.20;;;;;;5095000;27;35898;-76
2021/12/07 12:20:04;;;;;;;5.65;3.03;;;6.30;52.60;;;;;;5129031;27;34484;-76
2021/12/07 12:22:53;;;;;;;7.95;3.22;;;6.30;52.10;;;;;;5096589;27;34261;-76
2021/12/07 12:25:22;;;;;;;4.43;2.47;;;6.40;52.30;;;;;;5111975;27;34063;-76
2021/12/07 12:27:50;;;;;;;6.65;2.15;;;6.40;52.50;;;;;;5111566;27;35740;-76
2021/12/07 12:30:29;;;;;;;4.88;2.20;;;6.40;52.30;;;;;;5128864;27;34131;-76
2021/12/07 12:33:00;;;;;;;5.75;2.22;;;6.50;52.30;;;;;;5129055;27;34283;-76
2021/12/07 12:35:38;;;;;;;5.13;2.20;;;6.50;52.20;;;;;;5110623;27;34166;-76
2021/12/07 12:38:17;;;;;;;4.40;2.22;;;6.60;52.30;;;;;;5111711;27;36302;-76
2021/12/07 12:40:43;;;;;;;4.88;1.95;;;6.60;51.80;;;;;;5128094;27;34256;-76
2021/12/07 12:43:09;;;;;;;4.60;1.77;;;6.50;52.30;;;;;;5110171;27;34436;-76
2021/12/07 12:45:38;;;;;;;2.13;1.50;;;6.60;52.10;;;;;;5109958;27;34225;-76
2021/12/07 12:48:17;;;;;;;5.78;1.80;;;6.50;51.90;;;;;;5110942;27;35502;-76
2021/12/07 12:50:50;;;;;;;4.45;1.60;;;6.50;52.00;;;;;;5093152;27;34178;-76
2021/12/07 12:53:22;;;;;;;5.32;2.03;;;6.50;51.90;;;;;;5111704;27;33713;-76
2021/12/07 12:55:52;;;;;;;2.78;2.15;;;6.50;52.00;;;;;;5093862;27;34234;-76
2021/12/07 12:58:37;;;;;;;6.47;1.50;;;6.50;52.00;;;;;;5092976;27;36371;-76
2021/12/07 13:01:21;;;;;;;3.83;1.73;;;6.50;51.90;;;;;;5109663;27;34191;-76
2021/12/07 13:04:22;;;;;;;2.25;1.50;;;6.50;51.60;;;;;;5092988;27;34396;-76
2021/12/07 13:07:00;;;;;;;5.97;1.45;;;6.50;50.90;;;;;;5096428;27;34205;-76
2021/12/07 13:09:30;;;;;;;2.35;1.48;;;6.50;51.80;;;;;;5111926;27;34185;-76
2021/12/07 13:12:15;;;;;;;2.05;1.27;;;6.50;51.90;;;;;;5077691;27;34413;-76
2021/12/07 13:14:52;;;;;;;3.30;1.40;;;6.50;51.20;;;;;;5127321;27;34447;-76
2021/12/07 13:17:24;;;;;;;3.50;1.45;;;6.50;51.50;;;;;;5093318;27;34371;-76
2021/12/07 13:20:21;;;;;;;4.22;1.30;;;6.50;51.30;;;;;;5077553;27;35522;-76
2021/12/07 13:22:54;;;;;;;3.72;1.50;;;6.60;49.30;;;;;;5110009;27;34388;-76
2021/12/07 13:25:26;;;;;;;2.17;1.33;;;6.60;51.40;;;;;;5111716;27;34215;-76
2021/12/07 13:28:12;;;;;;;4.03;1.00;;;6.70;51.10;;;;;;5111228;27;34133;-76
2021/12/07 13:30:55;;;;;;;3.55;1.02;;;6.70;50.40;;;;;;5111452;27;36570;-76
2021/12/07 13:33:38;;;;;;;3.00;1.45;;;6.70;51.00;;;;;;5112255;27;34324;-76
2021/12/07 13:36:29;;;;;;;1.55;1.10;;;6.80;49.80;;;;;;5111644;27;34359;-76
2021/12/07 13:39:05;;;;;;;4.45;1.20;;;6.80;50.60;;;;;;5098140;27;34486;-76
2021/12/07 13:41:31;;;;;;;6.40;1.58;;;6.90;51.20;;;;;;5129379;27;34322;-76
2021/12/07 13:43:57;;;;;;;4.03;1.08;;;6.90;51.30;;;;;;5096103;27;34329;-76
2021/12/07 13:46:26;;;;;;;4.07;1.35;;;7.00;51.40;;;;;;5112298;27;34155;-76
2021/12/07 13:49:03;;;;;;;1.45;0.90;;;7.10;51.00;;;;;;5095672;27;34461;-76
2021/12/07 13:51:29;;;;;;;2.20;1.23;;;7.20;51.20;;;;;;5093684;28;37314;-76
2021/12/07 13:53:55;;;;;;;4.18;1.20;;;7.20;50.90;;;;;;5091601;28;34123;-76
2021/12/07 13:56:21;;;;;;;2.78;1.15;;;7.20;50.50;;;;;;5109338;28;34136;-76
2021/12/07 13:58:52;;;;;;;2.72;1.10;;;7.30;50.80;;;;;;5106496;28;34549;-76
2021/12/07 14:01:18;;;;;;;4.53;1.10;;;7.30;50.60;;;;;;5106094;28;34295;-76
2021/12/07 14:03:46;;;;;;;2.05;1.00;;;7.30;50.60;;;;;;5106385;28;34230;-76
2021/12/07 14:06:13;;;;;;;2.88;1.13;;;7.30;50.40;;;;;;5107221;28;34192;-76
2021/12/07 14:08:39;;;;;;;3.03;1.20;;;7.30;50.30;;;;;;5105712;27;34138;-76
2021/12/07 14:11:05;;;;;;;4.95;0.90;;;7.20;50.30;;;;;;5089035;28;34304;-76
2021/12/07 14:13:31;;;;;;;3.42;0.77;;;7.20;50.50;;;;;;5088886;28;34388;-76
2021/12/07 14:15:57;;;;;;;4.35;1.08;;;7.20;50.40;;;;;;5106202;28;34290;-76
2021/12/07 14:18:26;;;;;;;3.78;1.27;;;7.10;50.60;;;;;;5106811;28;34228;-76
2021/12/07 14:20:55;;;;;;;3.00;1.10;;;7.10;50.60;;;;;;5088991;28;36444;-76
2021/12/07 14:23:32;;;;;;;5.68;1.52;;;7.10;50.70;;;;;;5087709;28;34292;-76
2021/12/07 14:26:03;;;;;;;3.55;0.80;;;7.10;50.50;;;;;;5104060;28;34288;-76
2021/12/07 14:28:48;;;;;;;4.82;0.93;;;7.10;50.70;;;;;;5105650;28;34442;-76
2021/12/07 14:31:18;;;;;;;6.78;1.48;;;7.10;49.70;;;;;;5104459;28;35762;-76
2021/12/07 14:34:01;;;;;;;4.82;1.35;;;7.10;50.80;;;;;;5105488;28;34186;-76
2021/12/07 14:36:31;;;;;;;2.47;1.08;;;7.00;50.00;;;;;;5107290;28;34219;-76